Wells Fargo & Company (NYSE:WFC)

CAPS Rating: 5 out of 5

One of the country’s largest banks, Wells Fargo provides retail, commercial, and corporate banking services and is a leading residential mortgage lender.

Results 1 - 99 of 5376 : 1 2 3 4 5 6 7 8 9 10 Next »
Top
Pick
Member Name Member
Rating
Start
Date
Call Time
Frame
Start
Price
Stock
Gain
Index
Gain
Score Commentary
BiffLightyear < 20 5/3/2016 Outperform 5Y $49.60 -1.51% -0.81% -0.70 0 Comment
1998panther 67.90 5/2/2016 Outperform 5Y $50.21 -2.72% -1.52% -1.19 0 Comment
northcutt0 < 20 5/2/2016 Underperform 5Y $50.15 -2.59% -1.32% +1.27 0 Comment
alphacleaning 65.44 5/2/2016 Outperform 5Y $49.89 -2.10% -1.14% -0.96 0 Comment
GuruMF4 63.49 4/29/2016 Underperform 5Y $50.07 -2.45% -1.04% +1.40 0 Comment
DickyB1956 67.18 4/28/2016 Outperform 3Y $50.12 -2.54% -1.87% -0.67 0 Comment
BogotaColombia 27.39 4/25/2016 Outperform 5Y $49.92 -2.16% -1.77% -0.38 0 Comment
eeeconlawyer 84.76 4/21/2016 Outperform 5Y $50.16 -2.62% -2.64% +0.02 0 Comment
Fmkrowa < 20 4/18/2016 Outperform 5Y $47.60 +2.62% -1.24% +3.86 0 Comment
jimbo19 56.89 4/18/2016 Outperform 5Y $47.60 +2.62% -1.24% +3.86 0 Comment
This player feels very strongly about this pick and has marked it a Top Pick. Top Picks do not affect a player’s score. TheLibrarian 52.03 4/18/2016 Outperform 5Y $47.60 +2.62% -1.24% +3.86 0 Comment
arsenaltx 53.11 4/18/2016 Outperform 5Y $47.60 +2.62% -1.24% +3.86 0 Comment
cthomasset 80.19 4/15/2016 Outperform 5Y $47.77 +2.25% -1.46% +3.71 0 Comment
Momentum21 99.20 4/15/2016 Outperform 5Y $48.25 +1.25% -1.66% +2.90 0 Comment
ElChupaCabron 56.64 4/15/2016 Outperform 5Y $48.25 +1.25% -1.66% +2.90 0 Comment
johnrudisel 33.92 4/14/2016 Outperform 5Y $48.46 +0.79% -1.86% +2.65 0 Comment
20Punches 58.29 4/12/2016 Outperform 5Y $46.90 +4.16% -0.43% +4.58 0 Comment
GerstnerUSA < 20 4/11/2016 Outperform 5Y $46.75 +4.49% -0.33% +4.82 0 Comment
lucdewailly 93.44 4/8/2016 Outperform 5Y $46.90 +4.16% -0.02% +4.18 0 Comment
MikeySm < 20 4/8/2016 Outperform NS $46.99 +3.96% -0.38% +4.34 0 Comment
royalscam100 66.31 4/6/2016 Outperform 5Y $47.03 +3.87% +0.13% +3.74 0 Comment
TMFRazorback 96.21 4/1/2016 Outperform 5Y $48.10 +1.56% -1.01% +2.57 0 Comment
wolfhounds 29.15 4/1/2016 Outperform 5Y $47.86 +2.06% +0.11% +1.96 0 Comment
JKOC1234 86.16 4/1/2016 Outperform 5Y $47.86 +2.06% +0.11% +1.96 0 Comment
johnhenr 75.57 3/31/2016 Outperform 5Y $48.34 +1.06% -0.87% +1.92 0 Comment
joelbow7 32.45 3/30/2016 Underperform NS $48.53 +0.65% -0.69% -1.34 0 Comment
LarCyn08 77.80 9/16/2015 3/29/2016 Outperform 3M $52.01 -6.08% +2.84% -8.92 0 Comment
urmoney 99.78 3/28/2016 Underperform 5Y $48.51 +0.69% +0.53% -0.16 0 Comment
AWBAIN 59.71 3/28/2016 Outperform 5Y $48.27 +1.20% +0.70% +0.50 0 Comment
bonznstonz < 20 3/28/2016 Outperform 5Y $48.66 +0.38% +0.47% -0.09 0 Comment
howtoty 49.20 3/28/2016 Underperform 5Y $48.66 +0.38% +0.47% +0.09 0 Comment
Osvoldt 62.60 3/28/2016 Outperform 5Y $48.50 +0.71% +0.56% +0.15 0 Comment
TransverseSlice 93.37 2/15/2013 3/27/2016 Outperform 5Y $32.17 +51.84% +34.20% +17.64 0 Comment
1mattkeefer < 20 3/24/2016 Outperform 5Y $48.29 +1.15% +1.01% +0.14 0 Comment
oldvolvoguy 29.66 3/24/2016 Underperform 3Y $48.20 +1.35% +1.16% -0.19 0 Comment
stock43 < 20 3/24/2016 Outperform 5Y $48.59 +0.52% +1.34% -0.81 0 Comment
Keith1h1 21.77 3/23/2016 Outperform 5Y $49.41 -1.13% +0.65% -1.79 0 Comment
LowPrice 59.87 3/23/2016 Outperform 5Y $49.79 -1.90% +0.22% -2.12 0 Comment
mikebelle 65.12 3/23/2016 Outperform 5Y $49.79 -1.90% +0.22% -2.12 0 Comment
scdinnis 79.00 3/21/2016 Outperform 5Y $49.84 -1.99% +0.22% -2.21 0 Comment
seamus63 < 20 3/21/2016 Outperform 5Y $50.11 -2.52% +0.24% -2.77 1 Comment
queeqay 81.50 3/21/2016 Outperform 3Y $50.11 -2.52% +0.24% -2.77 0 Comment
gmctom 95.49 3/17/2016 Outperform 5Y $48.52 +0.68% +0.83% -0.15 0 Comment
mrbox 32.58 3/16/2016 Outperform 5Y $49.37 -1.05% +1.47% -2.52 0 Comment
teufelhunden62 96.26 3/16/2016 Outperform 5Y $49.37 -1.05% +1.47% -2.52 0 Comment
Mdgifool 39.49 3/14/2016 Outperform 5Y $49.59 -1.49% +1.19% -2.68 0 Comment
WCWlooky 22.73 3/14/2016 Outperform 5Y $49.59 -1.49% +1.19% -2.68 0 Comment
DannySenter 63.33 7/9/2012 3/12/2016 Outperform 5Y $29.56 +65.25% +51.10% +14.14 0 Comment
moodye 86.28 3/14/2011 3/11/2016 Outperform NS $27.90 +75.10% +57.30% +17.80 0 Comment
CMFSircc 75.44 3/9/2016 Outperform 5Y $48.91 -0.12% +2.85% -2.97 0 Comment
jdsugarman 96.91 6/17/2014 3/9/2016 Outperform 3Y $48.27 +1.19% +5.44% -4.24 0 Comment
powersatch < 20 3/7/2016 Outperform 5Y $49.47 -1.25% +2.38% -3.63 0 Comment
jswaisgood < 20 3/7/2016 Outperform 5Y $49.39 -1.09% +2.62% -3.72 0 Comment
PAGEBOY73 98.16 3/4/2016 Outperform 5Y $49.82 -1.95% +1.99% -3.94 0 Comment
77lucky < 20 3/4/2016 Outperform 5Y $49.63 -1.57% +2.28% -3.85 0 Comment
brentoregon 79.92 3/3/2016 Outperform 5Y $48.95 -0.20% +3.17% -3.38 0 Comment
Americuencano 41.15 3/3/2016 Outperform 5Y $49.15 -0.61% +2.87% -3.49 0 Comment
Robert52 76.78 3/2/2016 Outperform 5Y $48.98 -0.27% +3.30% -3.57 0 Comment
knigtstemplar 99.14 3/2/2016 Outperform 5Y $48.46 +0.79% +3.45% -2.66 0 Comment
TheNatureBoy4 25.64 3/1/2016 Outperform 5Y $46.92 +4.11% +4.90% -0.78 0 Comment
budyzerr 61.81 2/29/2016 Outperform 5Y $47.66 +2.49% +4.85% -2.36 0 Comment
streetlight86 < 20 2/25/2016 Outperform 5Y $47.51 +2.82% +5.12% -2.29 0 Comment
Krav 43.50 2/24/2016 Outperform 5Y $47.26 +3.35% +5.71% -2.36 0 Comment
AnuragsLUKBet 55.49 2/23/2016 Outperform 5Y $48.49 +0.73% +5.45% -4.72 1 Comment
DvdndTrkr 69.41 2/22/2016 Outperform 5Y $48.64 +0.42% +5.25% -4.83 0 Comment
stocky5 34.98 2/22/2016 Underperform 5Y $48.45 +0.81% +5.52% +4.71 1 Comment
DoubleBagel 31.40 2/22/2016 Outperform 5Y $48.45 +0.81% +5.52% -4.71 0 Comment
This player feels very strongly about this pick and has marked it a Top Pick. Top Picks do not affect a player’s score. ROEoutshinesGOLD 99.38 6/22/2012 2/18/2016 Outperform 5Y $29.28 +66.81% +53.94% +12.87 0 Comment
huddaman 98.28 2/18/2016 Outperform 5Y $47.58 +2.66% +6.15% -3.49 0 Comment
This player feels very strongly about this pick and has marked it a Top Pick. Top Picks do not affect a player’s score. Tainerman 55.45 2/18/2016 Outperform 5Y $47.58 +2.66% +6.15% -3.49 0 Comment
ChipNPutt11 69.40 2/17/2016 Outperform 5Y $48.28 +1.18% +7.01% -5.83 0 Comment
Mindfashion 20.66 2/16/2016 Outperform 5Y $47.56 +2.70% +8.76% -6.06 0 Comment
TMFgoLong 63.87 2/16/2016 Outperform 5Y $47.68 +2.45% +8.37% -5.92 0 Comment
CMF_Scott62 20.00 2/16/2016 Outperform 5Y $47.68 +2.45% +8.37% -5.92 0 Comment
aggiecoll05 92.79 2/12/2016 Outperform 3Y $45.61 +7.11% +10.60% -3.49 0 Comment
BlazerMania 89.92 2/11/2016 Outperform 5Y $44.42 +9.98% +12.44% -2.46 0 Comment
This player feels very strongly about this pick and has marked it a Top Pick. Top Picks do not affect a player’s score. ImCoffey 58.10 2/11/2016 Outperform 5Y $44.58 +9.56% +12.19% -2.63 0 Comment
NextYearInVegas 22.70 2/11/2016 Outperform 5Y $44.36 +10.12% +11.92% -1.79 0 Comment
tytymhorau 23.54 2/10/2016 Outperform 5Y $46.34 +5.41% +9.16% -3.75 0 Comment
MotleyMK 86.16 2/9/2016 Outperform 5Y $45.86 +6.50% +10.92% -4.41 0 Comment
IanERichards < 20 2/9/2016 Outperform 1Y $45.96 +6.27% +10.96% -4.69 1 Comment
TommyRumblestrip 85.72 2/9/2016 Outperform 5Y $46.18 +5.77% +10.21% -4.44 0 Comment
usubanas 99.72 3/7/2011 2/9/2016 Outperform 5Y $27.78 +75.81% +55.26% +20.55 0 Comment
kocheb3 87.83 2/9/2016 Outperform 5Y $45.26 +7.93% +11.56% -3.64 0 Comment
kohljm 97.85 2/9/2016 Outperform 5Y $45.26 +7.93% +11.56% -3.64 0 Comment
HERNIASURVIVOR 50.09 2/9/2016 Outperform 5Y $45.20 +8.07% +11.32% -3.25 0 Comment
wbinv2100 89.77 2/8/2016 Outperform 5Y $46.35 +5.40% +11.31% -5.91 0 Comment
bwbuch 79.79 2/8/2016 Outperform 5Y $46.75 +4.49% +10.12% -5.63 0 Comment
happyeater69 69.27 2/8/2016 Outperform 5Y $46.75 +4.49% +10.12% -5.63 0 Comment
gypsystem < 20 2/8/2016 Outperform 5Y $46.75 +4.49% +10.12% -5.63 0 Comment
bigbass14 85.02 2/5/2016 Outperform 5Y $47.28 +3.31% +9.03% -5.73 0 Comment
chillincat 76.45 2/5/2016 Outperform 5Y $47.38 +3.10% +9.01% -5.91 0 Comment
mrudolph72 53.63 2/5/2016 Outperform 3M $47.98 +1.81% +7.11% -5.30 0 Comment
Steward 41.65 2/5/2016 Outperform 5Y $47.98 +1.81% +7.11% -5.30 0 Comment
TMFCADeb 74.58 2/4/2016 Outperform 5Y $47.04 +3.85% +7.26% -3.41 0 Comment
FullerAMB 39.96 2/4/2016 Outperform 5Y $47.04 +3.85% +7.26% -3.41 0 Comment
greenisgreen 44.98 2/4/2016 Outperform 5Y $47.04 +3.85% +7.26% -3.41 0 Comment
KnightTrader1 91.09 1/28/2016 Outperform 5Y $48.16 +1.42% +8.17% -6.75 0 Comment
AkaThePerfessor 22.51 12/11/2012 1/26/2016 Outperform 5Y $30.17 +61.91% +42.28% +19.63 0 Comment

Featured Broker Partners